createdAt,value
2023-10-25T00:00:34.223Z,58.88
2023-10-25T00:01:36.010Z,59.12
2023-10-25T00:02:38.188Z,58.96
2023-10-25T00:03:41.165Z,59.02
2023-10-25T00:04:42.969Z,58.89
2023-10-25T00:05:46.135Z,59.20
2023-10-25T00:06:47.767Z,59.33
2023-10-25T00:07:49.397Z,58.78
2023-10-25T00:08:51.003Z,58.71
2023-10-25T00:09:52.722Z,58.89
2023-10-25T00:11:08.487Z,59.18
2023-10-25T00:12:10.095Z,58.92
2023-10-25T00:13:12.128Z,59.05
2023-10-25T00:14:13.787Z,59.13
2023-10-25T00:15:15.855Z,59.07
2023-10-25T00:16:17.625Z,59.15
2023-10-25T00:17:19.364Z,58.99
2023-10-25T00:18:20.997Z,58.85
2023-10-25T00:19:22.611Z,59.17
2023-10-25T00:20:24.224Z,59.09
2023-10-25T00:21:25.871Z,58.82
2023-10-25T00:22:27.538Z,58.96
2023-10-25T00:23:29.314Z,58.59
2023-10-25T00:24:30.920Z,58.94
2023-10-25T00:25:32.514Z,58.93
2023-10-25T00:26:34.138Z,58.61
2023-10-25T00:27:35.796Z,58.82
2023-10-25T00:28:38.529Z,58.75
2023-10-25T00:29:40.393Z,58.85
2023-10-25T00:30:42.433Z,58.48
2023-10-25T00:31:44.345Z,58.82
2023-10-25T00:32:46.089Z,58.97
2023-10-25T00:33:47.746Z,58.85
2023-10-25T00:34:49.386Z,58.89
2023-10-25T00:35:51.246Z,59.20
2023-10-25T00:36:52.901Z,58.59
2023-10-25T00:37:54.594Z,58.03
2023-10-25T00:38:56.442Z,58.70
2023-10-25T00:39:58.597Z,58.67
2023-10-25T00:41:00.334Z,57.99
2023-10-25T00:42:01.930Z,58.16
2023-10-25T00:43:17.238Z,58.24
2023-10-25T00:44:18.898Z,57.90
2023-10-25T00:45:20.516Z,57.90
2023-10-25T00:46:27.041Z,58.25
2023-10-25T00:47:29.344Z,58.16
2023-10-25T00:48:32.170Z,57.59
2023-10-25T00:49:33.838Z,57.76
2023-10-25T00:50:35.479Z,57.66
2023-10-25T00:51:37.299Z,57.60
2023-10-25T00:52:39.063Z,57.74
2023-10-25T00:53:53.490Z,57.40
2023-10-25T00:54:55.456Z,57.71
2023-10-25T00:55:58.804Z,57.61
2023-10-25T00:57:00.813Z,57.54
2023-10-25T00:58:02.719Z,57.06
2023-10-25T00:59:05.239Z,57.26
2023-10-25T01:00:08.493Z,57.25
2023-10-25T01:01:10.604Z,57.04
2023-10-25T01:02:13.586Z,57.17
2023-10-25T01:03:17.495Z,57.39
2023-10-25T01:04:19.660Z,56.88
2023-10-25T01:05:21.368Z,57.03
2023-10-25T01:06:23.345Z,57.12
2023-10-25T01:07:24.980Z,57.21
2023-10-25T01:08:26.611Z,56.83
2023-10-25T01:09:29.643Z,57.05
2023-10-25T01:10:31.502Z,57.14
2023-10-25T01:11:34.028Z,57.21
2023-10-25T01:12:35.751Z,56.98
2023-10-25T01:13:37.476Z,57.02
2023-10-25T01:14:39.130Z,56.75
2023-10-25T01:15:40.875Z,56.70
2023-10-25T01:16:42.654Z,56.57
2023-10-25T01:17:44.280Z,56.41
2023-10-25T01:18:46.018Z,56.42
2023-10-25T01:19:47.641Z,56.67
2023-10-25T01:20:49.808Z,57.14
2023-10-25T01:21:51.447Z,57.00
2023-10-25T01:22:53.058Z,57.35
2023-10-25T01:23:54.695Z,57.13
2023-10-25T01:24:56.348Z,57.59
2023-10-25T01:25:58.022Z,57.27
2023-10-25T01:26:59.752Z,57.51
2023-10-25T01:28:01.957Z,57.39
2023-10-25T01:29:03.770Z,57.25
2023-10-25T01:30:05.927Z,57.18
2023-10-25T01:31:07.647Z,57.21
2023-10-25T01:32:09.545Z,57.36
2023-10-25T01:33:11.219Z,57.34
2023-10-25T01:34:12.972Z,57.35
2023-10-25T01:35:14.685Z,57.27
2023-10-25T01:36:16.327Z,57.52
2023-10-25T01:37:18.763Z,57.36
2023-10-25T01:38:20.402Z,57.10
2023-10-25T01:39:22.061Z,57.64
2023-10-25T01:40:23.805Z,57.45
2023-10-25T01:41:25.645Z,58.19
2023-10-25T01:42:27.339Z,58.35
2023-10-25T01:43:29.642Z,58.26
2023-10-25T01:44:31.284Z,58.16
2023-10-25T01:45:32.883Z,57.90
2023-10-25T01:46:34.584Z,58.13
2023-10-25T01:47:36.441Z,57.93
2023-10-25T01:48:38.987Z,57.98
2023-10-25T01:49:41.147Z,58.23
2023-10-25T01:50:43.072Z,57.86
2023-10-25T01:51:44.705Z,58.05
2023-10-25T01:52:46.671Z,58.08
2023-10-25T01:53:48.313Z,57.69
2023-10-25T01:54:51.964Z,58.06
2023-10-25T01:55:54.348Z,58.32
2023-10-25T01:56:55.969Z,58.73
2023-10-25T01:57:57.636Z,58.28
2023-10-25T01:58:59.305Z,58.51
2023-10-25T02:00:02.803Z,58.62
2023-10-25T02:01:06.574Z,58.41
2023-10-25T02:02:08.743Z,58.25
2023-10-25T02:03:10.627Z,58.50
2023-10-25T02:04:12.402Z,58.60
2023-10-25T02:05:14.201Z,58.38
2023-10-25T02:06:16.051Z,58.43
2023-10-25T02:07:17.873Z,58.88
2023-10-25T02:08:19.535Z,59.55
2023-10-25T02:09:21.290Z,60.19
2023-10-25T02:10:22.914Z,60.20
2023-10-25T02:11:24.758Z,60.52
2023-10-25T02:12:26.446Z,60.67
2023-10-25T02:13:28.086Z,61.15
2023-10-25T02:14:29.787Z,61.02
2023-10-25T02:15:31.413Z,61.09
2023-10-25T02:16:33.077Z,60.83
2023-10-25T02:17:34.798Z,61.59
2023-10-25T02:18:36.456Z,61.54
2023-10-25T02:19:38.091Z,61.26
2023-10-25T02:20:39.886Z,61.46
2023-10-25T02:21:41.524Z,61.62
2023-10-25T02:22:43.231Z,61.65
2023-10-25T02:23:44.889Z,62.21
2023-10-25T02:24:46.699Z,62.42
2023-10-25T02:25:48.433Z,62.07
2023-10-25T02:26:51.725Z,62.63
2023-10-25T02:27:53.397Z,62.88
2023-10-25T02:28:55.952Z,62.65
2023-10-25T02:29:57.586Z,62.55
2023-10-25T02:31:02.420Z,62.66
2023-10-25T02:32:08.874Z,62.54
2023-10-25T02:33:10.785Z,62.72
2023-10-25T02:34:12.526Z,63.13
2023-10-25T02:35:14.317Z,63.68
2023-10-25T02:36:16.055Z,63.82
2023-10-25T02:37:18.510Z,64.14
2023-10-25T02:38:20.397Z,63.92
2023-10-25T02:39:22.112Z,64.24
2023-10-25T02:40:23.749Z,64.59
2023-10-25T02:41:25.462Z,64.39
2023-10-25T02:42:27.118Z,64.66
2023-10-25T02:43:29.070Z,64.32
2023-10-25T02:44:30.655Z,63.89
2023-10-25T02:45:32.326Z,63.70
2023-10-25T02:46:34.111Z,63.37
2023-10-25T02:47:35.802Z,63.24
2023-10-25T02:48:40.551Z,63.52
2023-10-25T02:49:42.579Z,62.91
2023-10-25T02:50:44.418Z,63.58
2023-10-25T02:51:46.053Z,63.58
2023-10-25T02:52:49.433Z,63.75
2023-10-25T02:53:54.125Z,63.38
2023-10-25T02:54:56.627Z,62.61
2023-10-25T02:56:03.616Z,62.90
2023-10-25T02:57:05.302Z,63.16
2023-10-25T02:58:06.992Z,63.50
2023-10-25T02:59:08.645Z,63.14
2023-10-25T03:00:14.034Z,62.96
2023-10-25T03:01:25.576Z,63.13
2023-10-25T03:02:27.403Z,62.55
2023-10-25T03:03:32.414Z,62.95
2023-10-25T03:04:34.133Z,62.92
2023-10-25T03:05:35.741Z,62.68
2023-10-25T03:06:37.361Z,62.40
2023-10-25T03:07:39.003Z,62.68
2023-10-25T03:08:40.633Z,62.48
2023-10-25T03:09:42.501Z,62.79
2023-10-25T03:10:44.445Z,62.36
2023-10-25T03:11:46.071Z,62.71
2023-10-25T03:12:47.781Z,63.36
2023-10-25T03:13:49.874Z,63.48
2023-10-25T03:14:51.588Z,63.11
2023-10-25T03:15:53.262Z,63.46
2023-10-25T03:16:54.920Z,63.27
2023-10-25T03:17:56.600Z,63.05
2023-10-25T03:18:58.272Z,62.84
2023-10-25T03:20:02.212Z,62.63
2023-10-25T03:21:05.046Z,62.85
2023-10-25T03:22:07.792Z,62.80
2023-10-25T03:23:09.446Z,63.04
2023-10-25T03:24:11.129Z,63.15
2023-10-25T03:25:13.111Z,63.32
2023-10-25T03:26:14.887Z,63.02
2023-10-25T03:27:16.512Z,63.86
2023-10-25T03:28:18.256Z,63.66
2023-10-25T03:29:19.952Z,63.59
2023-10-25T03:30:21.604Z,63.13
2023-10-25T03:31:23.392Z,63.13
2023-10-25T03:32:25.124Z,63.35
2023-10-25T03:33:26.784Z,63.02
2023-10-25T03:34:28.412Z,63.09
2023-10-25T03:35:30.028Z,62.71
2023-10-25T03:36:31.676Z,62.61
2023-10-25T03:37:33.736Z,62.60
2023-10-25T03:38:35.522Z,63.06
2023-10-25T03:39:37.658Z,62.85
2023-10-25T03:40:39.281Z,62.78
2023-10-25T03:41:42.716Z,62.64
2023-10-25T03:42:44.381Z,62.19
2023-10-25T03:43:46.036Z,62.23
2023-10-25T03:44:47.736Z,62.09
2023-10-25T03:45:49.379Z,61.54
2023-10-25T03:46:51.074Z,61.94
2023-10-25T03:47:52.717Z,62.42
2023-10-25T03:48:54.414Z,62.12
2023-10-25T03:49:56.071Z,62.15
2023-10-25T03:50:58.170Z,62.16
2023-10-25T03:51:59.826Z,62.17
2023-10-25T03:53:01.519Z,61.58
2023-10-25T03:54:03.130Z,62.42
2023-10-25T03:55:05.493Z,62.29
2023-10-25T03:56:07.167Z,62.35
2023-10-25T03:57:08.748Z,62.48
2023-10-25T03:58:10.542Z,62.66
2023-10-25T03:59:12.969Z,62.89
2023-10-25T04:00:15.273Z,63.62
2023-10-25T04:01:16.971Z,63.83
2023-10-25T04:02:18.616Z,63.90
2023-10-25T04:03:20.909Z,64.39
2023-10-25T04:04:22.686Z,64.11
2023-10-25T04:05:24.421Z,64.13
2023-10-25T04:06:26.073Z,63.87
2023-10-25T04:07:27.661Z,64.43
2023-10-25T04:08:29.227Z,64.92
2023-10-25T04:09:30.798Z,65.13
2023-10-25T04:10:34.016Z,65.86
2023-10-25T04:11:35.819Z,65.67
2023-10-25T04:12:37.911Z,65.94
2023-10-25T04:13:39.518Z,66.42
2023-10-25T04:14:47.936Z,66.71
2023-10-25T04:15:58.708Z,66.28
2023-10-25T04:17:00.343Z,66.27
2023-10-25T04:18:03.599Z,66.34
2023-10-25T04:19:05.263Z,66.35
2023-10-25T04:20:07.774Z,66.40
2023-10-25T04:21:11.524Z,66.68
2023-10-25T04:22:14.930Z,65.92
2023-10-25T04:23:16.903Z,66.02
2023-10-25T04:24:18.501Z,65.76
2023-10-25T04:25:20.250Z,65.20
2023-10-25T04:26:21.956Z,65.24
2023-10-25T04:27:23.553Z,65.43
2023-10-25T04:28:25.193Z,65.86
2023-10-25T04:29:26.830Z,65.34
2023-10-25T04:30:28.433Z,64.84
2023-10-25T04:31:30.177Z,65.28
2023-10-25T04:32:31.818Z,65.83
2023-10-25T04:33:33.555Z,65.89
2023-10-25T04:34:35.277Z,66.17
2023-10-25T04:35:36.907Z,65.73
2023-10-25T04:36:39.690Z,65.65
2023-10-25T04:37:41.247Z,65.68
2023-10-25T04:38:43.341Z,65.84
2023-10-25T04:39:45.161Z,66.13
2023-10-25T04:40:46.972Z,66.31
2023-10-25T04:41:48.537Z,65.73
2023-10-25T04:42:51.500Z,65.66
2023-10-25T04:43:53.114Z,66.19
2023-10-25T04:44:54.672Z,66.23
2023-10-25T04:45:56.283Z,66.66
2023-10-25T04:46:58.042Z,66.93
2023-10-25T04:47:59.787Z,67.08
2023-10-25T04:49:01.439Z,66.88
2023-10-25T04:50:05.733Z,66.82
2023-10-25T04:51:08.660Z,66.65
2023-10-25T04:52:10.493Z,67.07
2023-10-25T04:53:12.356Z,66.54
2023-10-25T04:54:13.924Z,66.29
2023-10-25T04:55:15.654Z,66.10
2023-10-25T04:56:22.756Z,65.85
2023-10-25T04:57:24.488Z,66.15
2023-10-25T04:58:28.410Z,66.12
2023-10-25T04:59:30.839Z,66.66
2023-10-25T05:00:33.367Z,67.08
2023-10-25T05:01:35.193Z,66.77
2023-10-25T05:02:38.670Z,66.58
2023-10-25T05:03:40.838Z,66.92
2023-10-25T05:04:42.534Z,66.78
2023-10-25T05:05:44.270Z,66.73
2023-10-25T05:06:46.802Z,66.43
2023-10-25T05:07:48.956Z,65.67
2023-10-25T05:08:50.890Z,65.93
2023-10-25T05:09:52.846Z,65.25
2023-10-25T05:10:57.074Z,64.97
2023-10-25T05:12:03.794Z,65.05
2023-10-25T05:13:05.822Z,65.32
2023-10-25T05:14:07.953Z,64.96
2023-10-25T05:15:11.093Z,64.55
2023-10-25T05:16:13.309Z,65.49
2023-10-25T05:17:15.257Z,65.90
2023-10-25T05:18:17.119Z,65.29
2023-10-25T05:19:19.143Z,64.67
2023-10-25T05:20:21.414Z,65.19
2023-10-25T05:21:27.794Z,65.45
2023-10-25T05:22:33.660Z,65.46
2023-10-25T05:23:35.768Z,65.50
2023-10-25T05:24:37.705Z,65.91
2023-10-25T05:25:39.640Z,65.88
2023-10-25T05:26:41.627Z,66.12
2023-10-25T05:27:43.890Z,66.27
2023-10-25T05:28:45.766Z,66.07
2023-10-25T05:29:47.759Z,66.50
2023-10-25T05:30:52.193Z,66.58
2023-10-25T05:31:57.131Z,66.73
2023-10-25T05:33:03.918Z,66.56
2023-10-25T05:34:06.370Z,66.92
2023-10-25T05:35:08.597Z,66.73
2023-10-25T05:36:10.930Z,67.10
2023-10-25T05:37:12.871Z,67.04
2023-10-25T05:38:15.336Z,67.56
2023-10-25T05:39:17.180Z,67.15
2023-10-25T05:40:22.013Z,66.93
2023-10-25T05:41:26.469Z,66.48
2023-10-25T05:42:28.667Z,66.45
2023-10-25T05:43:39.281Z,65.98
2023-10-25T05:44:41.126Z,65.59
2023-10-25T05:45:44.296Z,66.12
2023-10-25T05:46:46.420Z,65.95
2023-10-25T05:47:49.300Z,65.91
2023-10-25T05:48:51.243Z,65.74
2023-10-25T05:49:53.521Z,65.23
2023-10-25T05:51:00.730Z,65.47
2023-10-25T05:52:02.717Z,65.40
2023-10-25T05:53:04.639Z,65.63
2023-10-25T05:54:06.684Z,65.11
2023-10-25T05:55:08.883Z,65.44
2023-10-25T05:56:10.976Z,65.50
2023-10-25T05:57:13.862Z,65.13
2023-10-25T05:58:15.873Z,65.34
2023-10-25T05:59:17.766Z,64.88
2023-10-25T06:00:19.958Z,64.23
2023-10-25T06:01:35.901Z,64.97
2023-10-25T06:02:38.926Z,64.96
2023-10-25T06:03:46.514Z,64.91
2023-10-25T06:04:49.210Z,64.69
2023-10-25T06:05:53.414Z,64.60
2023-10-25T06:06:55.283Z,64.44
2023-10-25T06:07:57.193Z,63.86
2023-10-25T06:08:59.114Z,64.04
2023-10-25T06:10:00.982Z,63.36
2023-10-25T06:11:02.887Z,63.77
2023-10-25T06:12:05.704Z,63.49
2023-10-25T06:13:07.648Z,63.83
2023-10-25T06:14:10.341Z,63.77
2023-10-25T06:15:12.227Z,63.49
2023-10-25T06:16:14.959Z,62.98
2023-10-25T06:17:16.784Z,62.76
2023-10-25T06:18:18.424Z,63.01
2023-10-25T06:19:20.364Z,62.67
2023-10-25T06:20:22.039Z,63.14
2023-10-25T06:21:23.918Z,62.95
2023-10-25T06:22:25.603Z,62.50
2023-10-25T06:23:27.250Z,62.30
2023-10-25T06:24:31.567Z,62.62
2023-10-25T06:25:33.820Z,62.94
2023-10-25T06:26:35.420Z,63.28
2023-10-25T06:27:37.045Z,63.06
2023-10-25T06:28:38.616Z,62.59
2023-10-25T06:29:40.215Z,62.56
2023-10-25T06:30:41.833Z,62.55
2023-10-25T06:31:46.313Z,62.55
2023-10-25T06:32:48.531Z,61.78
2023-10-25T06:33:50.216Z,62.23
2023-10-25T06:34:51.906Z,62.10
2023-10-25T06:35:54.203Z,61.91
2023-10-25T06:36:56.248Z,61.90
2023-10-25T06:37:58.241Z,61.90
2023-10-25T06:39:05.476Z,61.96
2023-10-25T06:40:08.283Z,62.45
2023-10-25T06:41:20.762Z,62.34
2023-10-25T06:42:22.651Z,62.58
2023-10-25T06:43:24.676Z,61.89
2023-10-25T06:44:26.982Z,62.22
2023-10-25T06:45:28.748Z,62.31
2023-10-25T06:46:30.823Z,62.57
2023-10-25T06:47:32.769Z,62.82
2023-10-25T06:48:34.622Z,62.49
2023-10-25T06:49:36.657Z,62.23
2023-10-25T06:50:38.637Z,62.50
2023-10-25T06:51:40.508Z,62.17
2023-10-25T06:52:42.460Z,62.52
2023-10-25T06:53:44.341Z,62.48
2023-10-25T06:54:46.283Z,62.71
2023-10-25T06:55:48.114Z,63.15
2023-10-25T06:56:50.041Z,63.40
2023-10-25T06:57:52.681Z,62.77
2023-10-25T06:58:54.746Z,62.32
2023-10-25T06:59:56.680Z,62.78
2023-10-25T07:00:59.461Z,62.90
2023-10-25T07:02:34.284Z,63.32
2023-10-25T07:03:37.919Z,62.64
2023-10-25T07:04:41.431Z,62.87
2023-10-25T07:05:45.688Z,62.74
2023-10-25T07:06:47.899Z,63.65
2023-10-25T07:07:52.077Z,63.52
2023-10-25T07:08:54.070Z,62.98
2023-10-25T07:09:56.059Z,62.89
2023-10-25T07:10:59.686Z,63.37
2023-10-25T07:12:01.745Z,63.65
2023-10-25T07:13:03.491Z,64.60
2023-10-25T07:14:05.176Z,64.06
2023-10-25T07:15:07.324Z,63.82
2023-10-25T07:16:09.283Z,63.49
2023-10-25T07:17:11.045Z,63.45
2023-10-25T07:18:12.720Z,63.76
2023-10-25T07:19:14.314Z,63.13
2023-10-25T07:20:15.932Z,62.73
2023-10-25T07:21:17.566Z,62.59
2023-10-25T07:22:19.182Z,62.60
2023-10-25T07:23:20.834Z,62.15
2023-10-25T07:24:22.466Z,62.62
2023-10-25T07:25:24.266Z,62.71
2023-10-25T07:26:25.940Z,62.79
2023-10-25T07:27:27.653Z,63.28
2023-10-25T07:28:29.401Z,62.50
2023-10-25T07:29:32.262Z,62.30
2023-10-25T07:30:35.279Z,62.83
2023-10-25T07:31:36.970Z,62.59
2023-10-25T07:32:38.676Z,61.84
2023-10-25T07:33:41.347Z,61.55
2023-10-25T07:34:43.374Z,61.03
2023-10-25T07:35:45.351Z,61.62
2023-10-25T07:36:46.991Z,61.94
2023-10-25T07:37:48.609Z,61.95
2023-10-25T07:38:50.178Z,61.20
2023-10-25T07:39:51.815Z,61.34
2023-10-25T07:40:53.512Z,61.56
2023-10-25T07:41:55.679Z,62.01
2023-10-25T07:42:57.262Z,61.12
2023-10-25T07:43:59.281Z,61.35
2023-10-25T07:45:01.046Z,62.65
2023-10-25T07:46:02.760Z,61.53
2023-10-25T07:47:04.818Z,61.44
2023-10-25T07:48:06.553Z,61.89
2023-10-25T07:49:08.824Z,61.79
2023-10-25T07:50:10.473Z,61.86
2023-10-25T07:51:12.119Z,61.82
2023-10-25T07:52:16.636Z,61.53
2023-10-25T07:53:18.241Z,61.72
2023-10-25T07:54:19.894Z,61.34
2023-10-25T07:56:14.491Z,61.06
2023-10-25T07:58:52.326Z,60.18
2023-10-25T07:59:54.422Z,60.25
2023-10-25T08:00:56.375Z,60.44
2023-10-25T08:01:58.600Z,60.77
2023-10-25T08:03:00.330Z,59.98
2023-10-25T08:04:02.125Z,60.21
2023-10-25T08:05:04.115Z,59.85
2023-10-25T08:06:07.037Z,59.81
2023-10-25T08:07:08.604Z,60.08
2023-10-25T08:08:10.189Z,60.55
2023-10-25T08:09:11.829Z,60.03
2023-10-25T08:10:13.443Z,59.57
2023-10-25T08:11:15.078Z,59.54
2023-10-25T08:12:16.668Z,59.74
2023-10-25T08:13:18.278Z,59.46
2023-10-25T08:14:20.422Z,59.42
2023-10-25T08:15:22.100Z,59.27
2023-10-25T08:16:23.793Z,59.61
2023-10-25T08:17:25.481Z,58.90
2023-10-25T08:18:29.103Z,59.02
2023-10-25T08:19:31.998Z,59.19
2023-10-25T08:20:37.943Z,59.16
2023-10-25T08:21:39.819Z,58.59
2023-10-25T08:22:41.458Z,58.26
2023-10-25T08:23:46.418Z,58.02
2023-10-25T08:24:48.138Z,57.93
2023-10-25T08:25:52.063Z,61.06
2023-10-25T08:26:56.771Z,59.77
2023-10-25T08:27:58.486Z,58.75
2023-10-25T08:29:00.125Z,57.99
2023-10-25T08:30:01.859Z,57.65
2023-10-25T08:31:11.989Z,57.58
2023-10-25T08:32:13.828Z,58.30
2023-10-25T08:33:15.567Z,58.27
2023-10-25T08:34:17.297Z,57.99
2023-10-25T08:35:19.207Z,57.72
2023-10-25T08:36:20.867Z,57.50
2023-10-25T08:37:22.449Z,57.80
2023-10-25T08:38:24.122Z,58.05
2023-10-25T08:39:25.775Z,58.15
2023-10-25T08:40:27.745Z,58.23
2023-10-25T08:41:29.952Z,57.44
2023-10-25T08:42:31.667Z,56.53
2023-10-25T08:43:34.077Z,57.04
2023-10-25T08:44:40.444Z,55.95
2023-10-25T08:45:45.499Z,55.84
2023-10-25T08:46:50.072Z,56.26
2023-10-25T08:47:52.243Z,56.18
2023-10-25T08:48:56.333Z,57.31
2023-10-25T08:49:58.012Z,56.80
2023-10-25T08:51:04.635Z,56.04
2023-10-25T08:52:08.316Z,55.45
2023-10-25T08:53:10.278Z,55.47
2023-10-25T08:54:12.088Z,55.75
2023-10-25T08:55:13.843Z,55.66
2023-10-25T08:56:15.543Z,55.07
2023-10-25T08:57:19.541Z,55.17
2023-10-25T08:58:22.513Z,55.12
2023-10-25T08:59:24.171Z,54.56
2023-10-25T09:00:43.412Z,54.22
2023-10-25T09:01:51.849Z,53.42
2023-10-25T09:02:58.352Z,52.82
2023-10-25T09:04:07.910Z,53.24
2023-10-25T09:05:09.820Z,53.39
2023-10-25T09:06:21.324Z,53.37
2023-10-25T09:07:33.346Z,52.82
2023-10-25T09:08:35.947Z,52.94
2023-10-25T09:09:40.979Z,53.86
2023-10-25T09:10:42.818Z,52.71
2023-10-25T09:11:46.300Z,53.03
2023-10-25T09:12:50.048Z,52.66
2023-10-25T09:13:58.472Z,52.22
2023-10-25T09:15:00.178Z,52.97
2023-10-25T09:16:10.774Z,53.33
2023-10-25T09:17:12.422Z,52.85
2023-10-25T09:18:14.113Z,52.61
2023-10-25T09:19:20.728Z,53.15
2023-10-25T09:20:28.755Z,52.41
2023-10-25T09:21:31.021Z,52.69
2023-10-25T09:22:32.626Z,52.17
2023-10-25T09:23:37.708Z,52.50
2023-10-25T09:24:49.239Z,51.54
2023-10-25T09:25:51.238Z,51.51
2023-10-25T09:26:55.948Z,51.74
2023-10-25T09:27:57.705Z,51.09
2023-10-25T09:28:59.320Z,50.98
2023-10-25T09:30:26.412Z,51.01
2023-10-25T09:31:31.736Z,50.96
2023-10-25T09:32:33.421Z,50.37
2023-10-25T09:33:35.071Z,50.00
2023-10-25T09:34:37.618Z,50.58
2023-10-25T09:35:39.344Z,50.14
2023-10-25T09:36:41.540Z,51.36
2023-10-25T09:37:43.205Z,50.96
2023-10-25T09:38:44.945Z,52.49
2023-10-25T09:39:46.601Z,50.65
2023-10-25T09:40:50.334Z,50.52
2023-10-25T09:41:54.009Z,50.00
2023-10-25T09:43:00.522Z,51.72
2023-10-25T09:44:08.067Z,51.71
2023-10-25T09:45:13.498Z,51.64
2023-10-25T09:46:20.161Z,50.06
2023-10-25T09:47:26.389Z,49.85
2023-10-25T09:48:31.185Z,50.29
2023-10-25T09:49:38.008Z,49.79
2023-10-25T09:50:45.995Z,48.62
2023-10-25T09:51:56.043Z,48.81
2023-10-25T09:53:18.515Z,49.07
2023-10-25T09:54:29.710Z,48.56
2023-10-25T09:55:33.006Z,48.40
2023-10-25T09:56:36.492Z,48.69
2023-10-25T09:57:44.869Z,49.02
2023-10-25T09:58:47.450Z,48.49
2023-10-25T09:59:49.501Z,48.43
2023-10-25T10:00:52.205Z,48.59
2023-10-25T10:01:56.986Z,48.97
2023-10-25T10:03:10.340Z,49.05
2023-10-25T10:04:30.337Z,49.00
2023-10-25T10:05:38.348Z,49.30
2023-10-25T10:06:50.858Z,48.80
2023-10-25T10:08:43.804Z,48.33
2023-10-25T10:10:12.395Z,47.31
2023-10-25T10:11:20.388Z,47.04
2023-10-25T10:12:22.713Z,46.45
2023-10-25T10:13:25.153Z,46.45
2023-10-25T10:14:35.178Z,48.10
2023-10-25T10:15:59.428Z,45.39
2023-10-25T10:17:13.452Z,45.80
2023-10-25T10:18:15.171Z,44.56
2023-10-25T10:19:16.868Z,46.00
2023-10-25T10:20:29.612Z,46.01
2023-10-25T10:21:31.301Z,44.75
2023-10-25T10:22:34.032Z,44.88
2023-10-25T10:23:41.368Z,45.27
2023-10-25T10:24:50.100Z,44.21
2023-10-25T10:25:53.716Z,44.96
2023-10-25T10:26:55.453Z,44.55
2023-10-25T10:28:03.256Z,45.37
2023-10-25T10:29:05.270Z,43.85
2023-10-25T10:30:38.528Z,44.73
2023-10-25T10:31:57.134Z,43.47
2023-10-25T10:32:58.828Z,43.26
2023-10-25T10:34:00.524Z,42.98
2023-10-25T10:35:03.338Z,43.49
2023-10-25T10:36:05.533Z,43.12
2023-10-25T10:37:12.132Z,43.06
2023-10-25T10:38:13.756Z,42.50
2023-10-25T10:39:17.699Z,42.79
2023-10-25T10:40:19.376Z,43.12
2023-10-25T10:41:29.093Z,43.45
2023-10-25T10:42:30.694Z,44.23
2023-10-25T10:43:32.783Z,43.46
2023-10-25T10:44:35.702Z,44.23
2023-10-25T10:45:43.767Z,43.34
2023-10-25T10:47:07.786Z,42.33
2023-10-25T10:48:31.994Z,41.69
2023-10-25T10:49:36.804Z,41.88
2023-10-25T10:50:41.382Z,42.12
2023-10-25T10:51:43.033Z,42.46
2023-10-25T10:52:46.100Z,42.23
2023-10-25T10:53:48.075Z,42.73
2023-10-25T10:54:49.683Z,42.89
2023-10-25T10:55:51.354Z,42.64
2023-10-25T10:56:53.211Z,42.20
2023-10-25T10:58:59.589Z,41.96
2023-10-25T11:00:01.878Z,42.29
2023-10-25T11:01:03.776Z,42.73
2023-10-25T11:02:07.569Z,42.80
2023-10-25T11:03:10.449Z,43.08
2023-10-25T11:04:12.390Z,43.01
2023-10-25T11:05:16.599Z,43.61
2023-10-25T11:06:19.657Z,43.41
2023-10-25T11:07:21.466Z,43.03
2023-10-25T11:08:25.189Z,42.89
2023-10-25T11:09:26.883Z,42.66
2023-10-25T11:10:28.478Z,42.99
2023-10-25T11:11:30.189Z,42.20
2023-10-25T11:12:33.032Z,42.59
2023-10-25T11:13:34.961Z,42.54
2023-10-25T11:14:54.858Z,42.32
2023-10-25T11:16:04.210Z,41.88
2023-10-25T11:17:05.820Z,42.25
2023-10-25T11:18:11.478Z,42.71
2023-10-25T11:19:13.626Z,43.06
2023-10-25T11:20:15.191Z,41.87
2023-10-25T11:21:16.864Z,41.45
2023-10-25T11:22:18.489Z,41.93
2023-10-25T11:23:20.300Z,41.98
2023-10-25T11:24:21.893Z,41.98
2023-10-25T11:25:28.735Z,41.62
2023-10-25T11:26:30.709Z,41.97
2023-10-25T11:27:33.444Z,41.23
2023-10-25T11:28:35.141Z,40.57
2023-10-25T11:29:39.050Z,40.99
2023-10-25T11:30:41.896Z,42.04
2023-10-25T11:31:44.284Z,41.69
2023-10-25T11:32:45.996Z,41.53
2023-10-25T11:33:47.617Z,41.52
2023-10-25T11:34:53.502Z,41.30
2023-10-25T11:35:56.132Z,41.59
2023-10-25T11:36:57.764Z,42.50
2023-10-25T11:38:00.634Z,42.06
2023-10-25T11:39:06.464Z,41.60
2023-10-25T11:40:08.448Z,41.73
2023-10-25T11:41:10.976Z,42.91
2023-10-25T11:42:15.728Z,42.31
2023-10-25T11:43:18.243Z,42.14
2023-10-25T11:44:23.524Z,41.62
2023-10-25T11:45:25.306Z,40.88
2023-10-25T11:46:42.232Z,40.42
2023-10-25T11:47:47.128Z,41.52
2023-10-25T11:48:50.912Z,41.85
2023-10-25T11:49:53.982Z,41.15
2023-10-25T11:50:57.768Z,41.25
2023-10-25T11:51:59.536Z,40.96
2023-10-25T11:53:01.594Z,41.69
2023-10-25T11:54:17.506Z,41.97
2023-10-25T11:55:20.355Z,41.61
2023-10-25T11:56:23.243Z,41.92
2023-10-25T11:57:32.834Z,43.00
2023-10-25T11:58:34.441Z,43.17
2023-10-25T11:59:36.355Z,42.99
2023-10-25T12:00:37.952Z,42.02
2023-10-25T12:01:39.592Z,42.98
2023-10-25T12:02:43.072Z,42.70
2023-10-25T12:03:45.869Z,42.51
2023-10-25T12:04:48.381Z,43.03
2023-10-25T12:05:50.108Z,43.22
2023-10-25T12:06:51.770Z,44.05
2023-10-25T12:07:53.428Z,43.73
2023-10-25T12:08:55.099Z,44.12
2023-10-25T12:09:56.829Z,44.06
2023-10-25T12:10:58.434Z,44.82
2023-10-25T12:12:00.139Z,44.09
2023-10-25T12:13:01.772Z,44.03
2023-10-25T12:14:04.849Z,43.77
2023-10-25T12:15:08.811Z,43.22
2023-10-25T12:16:10.621Z,43.89
2023-10-25T12:17:12.374Z,43.35
2023-10-25T12:18:14.076Z,43.98
2023-10-25T12:19:15.692Z,43.92
2023-10-25T12:20:27.583Z,44.41
2023-10-25T12:21:32.320Z,44.77
2023-10-25T12:22:33.887Z,44.85
2023-10-25T12:23:36.507Z,45.66
2023-10-25T12:24:39.257Z,45.20
2023-10-25T12:25:40.948Z,45.33
2023-10-25T12:26:42.557Z,45.79
2023-10-25T12:27:45.966Z,45.34
2023-10-25T12:28:47.589Z,45.96
2023-10-25T12:29:49.244Z,45.98
2023-10-25T12:30:55.666Z,45.67
2023-10-25T12:31:58.457Z,45.77
2023-10-25T12:33:00.077Z,44.82
2023-10-25T12:34:02.045Z,44.87
2023-10-25T12:35:03.926Z,45.00
2023-10-25T12:36:05.748Z,44.93
2023-10-25T12:37:07.418Z,44.72
2023-10-25T12:38:09.451Z,45.27
2023-10-25T12:39:11.143Z,44.87
2023-10-25T12:40:12.903Z,44.82
2023-10-25T12:41:14.545Z,45.25
2023-10-25T12:42:16.166Z,44.62
2023-10-25T12:43:17.871Z,44.78
2023-10-25T12:44:19.532Z,44.78
2023-10-25T12:45:21.108Z,44.00
2023-10-25T12:46:22.757Z,43.83
2023-10-25T12:47:25.089Z,44.20
2023-10-25T12:48:28.614Z,45.30
2023-10-25T12:49:30.507Z,44.99
2023-10-25T12:50:32.307Z,44.58
2023-10-25T12:51:33.934Z,45.51
2023-10-25T12:52:35.574Z,45.03
2023-10-25T12:53:38.061Z,45.29
2023-10-25T12:54:39.678Z,45.82
2023-10-25T12:55:41.308Z,45.61
2023-10-25T12:56:43.055Z,44.86
2023-10-25T12:57:44.719Z,45.25
2023-10-25T12:58:46.371Z,46.23
2023-10-25T12:59:48.064Z,45.16
2023-10-25T13:00:49.911Z,45.98
2023-10-25T13:01:54.084Z,46.39
2023-10-25T13:02:56.005Z,44.86
2023-10-25T13:03:57.816Z,44.21
2023-10-25T13:04:59.564Z,44.25
2023-10-25T13:06:01.525Z,44.45
2023-10-25T13:07:04.018Z,44.04
2023-10-25T13:08:05.630Z,43.38
2023-10-25T13:09:07.979Z,43.99
2023-10-25T13:10:09.921Z,45.20
2023-10-25T13:11:11.610Z,45.28
2023-10-25T13:12:13.349Z,45.15
2023-10-25T13:13:14.980Z,45.17
2023-10-25T13:14:16.639Z,44.67
2023-10-25T13:15:18.276Z,45.15
2023-10-25T13:16:20.086Z,45.71
2023-10-25T13:17:21.689Z,45.70
2023-10-25T13:18:23.433Z,45.88
2023-10-25T13:19:25.431Z,45.90
2023-10-25T13:20:27.207Z,45.42
2023-10-25T13:21:28.869Z,45.71
2023-10-25T13:22:31.623Z,45.52
2023-10-25T13:23:33.273Z,46.21
2023-10-25T13:24:34.893Z,45.76
2023-10-25T13:25:36.551Z,46.20
2023-10-25T13:26:38.407Z,44.42
2023-10-25T13:27:40.288Z,43.62
2023-10-25T13:28:41.875Z,43.40
2023-10-25T13:29:43.812Z,43.98
2023-10-25T13:30:45.652Z,43.49
2023-10-25T13:31:47.303Z,43.60
2023-10-25T13:32:49.389Z,43.50
2023-10-25T13:33:51.171Z,43.40
2023-10-25T14:04:33.551Z,52.66
2023-10-25T14:05:41.846Z,51.04
2023-10-25T14:06:43.501Z,50.85